Time;durP1;ratioP1;P1;durP2;ratioP2;P2;SDS_P1;SDS_P2;PMS_P1;PMS_P2;Temp;Humidity;BMP_temperature;BMP_pressure;BME280_temperature;BME280_humidity;BME280_pressure;Samples;Min_cycle;Max_cycle;Signal;HPM_P1;HPM_P2
2022/03/13 00:00:59;;;;;;;55.43;33.50;;;;;;;-0.52;47.96;100722.91;6343433;22;20043;-84
2022/03/13 00:03:26;;;;;;;47.13;30.27;;;;;;;-1.51;48.06;100590.50;6344219;22;19979;-85
2022/03/13 00:05:52;;;;;;;40.53;27.83;;;;;;;0.28;47.93;100847.66;6344046;22;20005;-85
2022/03/13 00:13:44;;;;;;;40.83;29.25;;;;;;;-2.52;48.34;100464.34;6340569;22;19922;-85
2022/03/13 00:16:10;;;;;;;39.00;27.03;;;;;;;-1.84;48.17;100582.66;6344109;22;20015;-85
2022/03/13 00:26:21;;;;;;;36.83;24.70;;;;;;;-2.86;47.97;100406.47;6304545;22;20032;-84
2022/03/13 00:28:47;;;;;;;32.97;23.10;;;;;;;-1.45;48.18;100556.56;6322218;22;19996;-82
2022/03/13 00:31:13;;;;;;;37.47;27.83;;;;;;;-3.56;48.14;100239.31;6321749;22;20019;-81
2022/03/13 00:36:14;;;;;;;37.53;24.87;;;;;;;-2.54;48.61;100417.03;6321560;22;19999;-82
2022/03/13 00:38:39;;;;;;;40.20;27.23;;;;;;;-2.55;48.24;100431.72;6335014;22;20033;-85
2022/03/13 00:46:15;;;;;;;32.37;21.70;;;;;;;-2.68;48.67;100459.88;6333162;22;20011;-85
2022/03/13 00:48:41;;;;;;;30.80;21.47;;;;;;;-2.03;48.61;100524.94;6333254;22;20022;-85
2022/03/13 00:51:08;;;;;;;29.73;21.60;;;;;;;-1.68;49.02;100635.34;6337391;22;20056;-84
2022/03/13 00:53:33;;;;;;;29.57;21.00;;;;;;;-1.95;49.06;100588.34;6332256;22;20014;-85
2022/03/13 00:55:59;;;;;;;27.83;18.97;;;;;;;-0.69;48.81;100722.94;6335755;22;20000;-83
2022/03/13 00:58:25;;;;;;;25.47;18.77;;;;;;;-0.07;48.70;100817.47;6335553;22;19999;-84
2022/03/13 01:00:51;;;;;;;25.67;20.03;;;;;;;-3.03;48.44;100377.97;6337074;22;19983;-83
2022/03/13 01:03:34;;;;;;;25.50;17.83;;;;;;;-0.07;48.33;100812.28;6311155;22;20007;-82
2022/03/13 01:06:00;;;;;;;26.17;16.80;;;;;;;-1.32;48.64;100665.59;6323215;22;20025;-84
2022/03/13 01:08:27;;;;;;;34.77;22.43;;;;;;;-3.46;48.59;100324.91;6336600;22;19987;-84
2022/03/13 01:10:54;;;;;;;35.37;21.33;;;;;;;-1.36;48.68;100591.53;6336425;22;19996;-84
2022/03/13 01:13:21;;;;;;;21.33;15.90;;;;;;;-3.07;48.77;100371.28;6337312;22;20007;-84
2022/03/13 01:15:49;;;;;;;19.93;15.00;;;;;;;-3.32;48.38;100309.63;6334977;22;20006;-84
2022/03/13 01:18:15;;;;;;;21.00;15.63;;;;;;;-3.04;48.85;100364.22;6335537;22;19990;-83
2022/03/13 01:20:41;;;;;;;20.77;15.33;;;;;;;-2.97;48.77;100349.31;6335644;22;19983;-84
2022/03/13 01:23:11;;;;;;;19.27;14.20;;;;;;;-2.93;49.05;100415.44;6335434;22;20054;-84
2022/03/13 01:25:38;;;;;;;21.30;14.23;;;;;;;-2.88;48.57;100400.56;6335319;22;19992;-84
2022/03/13 01:28:04;;;;;;;17.87;13.27;;;;;;;-2.99;48.89;100388.09;6335787;22;19999;-84
2022/03/13 01:30:30;;;;;;;19.10;14.00;;;;;;;-3.12;48.74;100379.25;6321897;22;20019;-84
2022/03/13 01:32:56;;;;;;;19.07;12.93;;;;;;;-2.90;48.68;100373.94;6324111;22;20030;-84
2022/03/13 01:35:23;;;;;;;17.60;13.30;;;;;;;-3.28;48.21;100314.56;6308618;22;20014;-84
2022/03/13 01:37:51;;;;;;;19.63;13.80;;;;;;;-2.54;48.28;100443.72;6335909;22;19995;-84
2022/03/13 01:40:24;;;;;;;18.10;13.73;;;;;;;-1.34;48.81;100587.13;6271307;22;20015;-84
2022/03/13 01:45:28;;;;;;;19.33;12.33;;;;;;;-2.65;48.09;100414.97;6272752;22;20054;-83
2022/03/13 01:47:54;;;;;;;16.13;11.53;;;;;;;-2.78;48.39;100380.28;6271947;23;20015;-84
2022/03/13 01:50:20;;;;;;;17.80;12.30;;;;;;;-3.00;48.30;100337.34;6273234;23;19984;-84
2022/03/13 01:52:48;;;;;;;16.87;11.67;;;;;;;-3.00;47.96;100359.75;6273260;22;19996;-84
2022/03/13 01:55:18;;;;;;;11.30;8.87;;;;;;;-3.17;48.02;100345.06;6273143;22;19984;-83
2022/03/13 01:57:45;;;;;;;13.50;9.33;;;;;;;-2.01;48.13;100525.69;6272184;22;20373;-83
2022/03/13 02:00:12;;;;;;;15.27;10.07;;;;;;;-1.01;48.52;100655.38;6272387;22;20004;-84
2022/03/13 02:02:43;;;;;;;12.87;9.60;;;;;;;-3.20;48.63;100352.94;6272993;22;20035;-84
2022/03/13 02:07:55;;;;;;;11.60;8.60;;;;;;;-0.23;48.39;100796.66;6295248;22;20004;-83
2022/03/13 02:10:21;;;;;;;12.30;9.23;;;;;;;-3.01;48.06;100371.84;6305708;22;20039;-83
2022/03/13 02:15:28;;;;;;;11.17;8.90;;;;;;;-2.74;48.42;100405.91;6297706;22;20027;-84
2022/03/13 02:17:54;;;;;;;10.35;8.75;;;;;;;-3.24;47.77;100325.59;6304332;22;20008;-83
2022/03/13 02:20:26;;;;;;;13.60;9.70;;;;;;;-2.96;47.93;100413.81;6304292;22;20026;-83
2022/03/13 02:25:32;;;;;;;13.77;10.07;;;;;;;-2.61;48.06;100445.75;6277161;22;20016;-84
2022/03/13 02:27:58;;;;;;;13.50;9.37;;;;;;;-0.58;48.00;100730.16;6303822;22;20017;-83
2022/03/13 02:30:27;;;;;;;11.47;9.10;;;;;;;-2.78;47.48;100421.63;6303247;22;20028;-83
2022/03/13 02:32:54;;;;;;;13.87;10.17;;;;;;;-1.96;47.88;100521.97;6303260;22;20007;-84
2022/03/13 02:35:20;;;;;;;11.20;9.13;;;;;;;-2.97;47.79;100364.81;6303721;22;20007;-82
2022/03/13 02:37:48;;;;;;;9.83;8.20;;;;;;;-2.99;47.79;100353.69;6284843;22;20016;-83
2022/03/13 02:40:22;;;;;;;12.43;8.60;;;;;;;-1.36;47.82;100584.59;6285941;22;20012;-83
2022/03/13 02:42:51;;;;;;;15.00;10.73;;;;;;;-2.04;47.53;100556.88;6303458;22;20037;-84
2022/03/13 02:45:36;;;;;;;15.63;11.00;;;;;;;-0.17;47.63;100793.75;6302987;22;20002;-82
2022/03/13 02:48:04;;;;;;;14.83;10.27;;;;;;;-2.40;47.62;100463.75;6303057;22;20022;-84
2022/03/13 02:50:30;;;;;;;20.70;12.80;;;;;;;-1.81;47.97;100600.63;6302563;22;20007;-84
2022/03/13 02:52:56;;;;;;;15.70;10.90;;;;;;;-3.23;47.59;100297.13;6303032;22;19995;-83
2022/03/13 02:55:22;;;;;;;17.57;11.53;;;;;;;-3.29;47.49;100353.38;6303511;22;19980;-84
2022/03/13 02:57:48;;;;;;;14.07;10.23;;;;;;;-2.14;48.03;100484.06;6301915;22;20033;-84
2022/03/13 03:00:16;;;;;;;14.47;10.30;;;;;;;-2.58;47.53;100455.97;6302927;22;19999;-84
2022/03/13 03:02:42;;;;;;;14.27;11.03;;;;;;;-3.16;47.94;100374.31;6303588;22;19984;-83
2022/03/13 03:05:08;;;;;;;15.17;11.30;;;;;;;-3.26;47.71;100354.06;6304766;22;19999;-83
2022/03/13 03:07:36;;;;;;;16.93;10.60;;;;;;;-3.38;48.21;100338.31;6272211;22;20010;-83
2022/03/13 03:10:03;;;;;;;18.33;12.33;;;;;;;-2.08;48.02;100524.31;6304734;22;20014;-83
2022/03/13 03:12:29;;;;;;;23.40;14.50;;;;;;;-0.18;47.78;100863.91;6255165;22;20004;-83
2022/03/13 03:14:55;;;;;;;18.50;13.37;;;;;;;-2.61;48.07;100424.25;6290757;22;20007;-83
2022/03/13 03:17:21;;;;;;;18.77;12.33;;;;;;;-3.22;48.01;100321.19;6300643;22;20000;-83
2022/03/13 03:19:47;;;;;;;18.40;12.27;;;;;;;-3.61;48.03;100236.97;6305097;22;20011;-83
2022/03/13 03:22:15;;;;;;;16.17;12.13;;;;;;;-2.97;47.92;100424.22;6304196;22;20004;-84
2022/03/13 03:24:41;;;;;;;15.97;12.17;;;;;;;-1.71;47.94;100549.22;6303140;22;20007;-84
2022/03/13 03:27:07;;;;;;;20.70;13.80;;;;;;;-2.47;47.46;100475.28;6304605;22;19988;-83
2022/03/13 03:29:33;;;;;;;19.13;14.17;;;;;;;-3.10;48.00;100390.34;6304753;22;20015;-83
2022/03/13 03:31:59;;;;;;;18.63;13.67;;;;;;;-1.38;47.85;100590.78;6293642;22;20051;-82
2022/03/13 03:34:27;;;;;;;16.03;12.93;;;;;;;-3.21;47.56;100354.69;6299303;22;19995;-84
2022/03/13 03:36:59;;;;;;;16.43;12.70;;;;;;;-2.30;47.75;100490.84;6304525;22;20000;-83
2022/03/13 03:39:27;;;;;;;17.80;13.30;;;;;;;-3.56;47.76;100241.91;6303750;22;20006;-83
2022/03/13 03:41:54;;;;;;;18.20;11.67;;;;;;;-3.28;47.75;100386.88;6302422;22;20006;-84
2022/03/13 03:44:21;;;;;;;15.37;12.53;;;;;;;-1.64;47.69;100572.16;6302633;22;20046;-83
2022/03/13 03:46:48;;;;;;;28.93;18.10;;;;;;;-3.66;48.05;100302.59;6301864;22;20015;-83
2022/03/13 03:49:15;;;;;;;19.17;13.33;;;;;;;-1.61;47.99;100628.97;6302786;22;20002;-84
2022/03/13 03:51:43;;;;;;;19.27;13.27;;;;;;;-3.01;47.69;100426.09;6301813;22;20053;-83
2022/03/13 03:54:10;;;;;;;17.13;12.50;;;;;;;-2.41;47.61;100462.91;6302273;22;20003;-84
2022/03/13 03:59:11;;;;;;;16.70;12.77;;;;;;;-3.45;47.79;100308.53;6295892;22;20003;-84
2022/03/13 04:01:39;;;;;;;17.90;13.20;;;;;;;-3.47;48.13;100336.97;6304470;22;19992;-85
2022/03/13 04:04:09;;;;;;;19.13;14.20;;;;;;;-3.45;48.08;100347.25;6304663;22;19992;-83
2022/03/13 04:06:38;;;;;;;19.43;13.57;;;;;;;-0.56;48.58;100832.94;6304461;22;19983;-84
2022/03/13 04:09:08;;;;;;;21.10;14.17;;;;;;;-3.59;48.04;100333.22;6305063;22;20004;-84
2022/03/13 04:16:44;;;;;;;23.27;16.87;;;;;;;-3.50;48.48;100302.72;6295491;22;20007;-83
2022/03/13 04:19:10;;;;;;;23.30;17.47;;;;;;;-2.74;48.43;100469.69;6337511;22;20010;-84
2022/03/13 04:21:40;;;;;;;29.17;18.20;;;;;;;-1.65;48.46;100614.50;6337410;22;19995;-84
2022/03/13 04:24:11;;;;;;;24.97;18.03;;;;;;;-1.81;48.64;100610.97;6337352;22;19991;-82
2022/03/13 04:26:39;;;;;;;26.73;18.77;;;;;;;-2.27;48.12;100507.06;6337203;22;20011;-83
2022/03/13 04:29:06;;;;;;;33.13;21.17;;;;;;;-3.25;48.61;100403.97;6337046;22;20031;-83
2022/03/13 04:31:35;;;;;;;30.37;19.87;;;;;;;-3.63;48.22;100336.00;6310468;22;19994;-84
2022/03/13 04:34:02;;;;;;;29.57;18.87;;;;;;;-3.72;48.40;100336.38;6336677;22;20027;-84
2022/03/13 04:36:32;;;;;;;27.90;18.37;;;;;;;-2.51;48.42;100504.78;6337610;22;20010;-83
2022/03/13 04:38:58;;;;;;;29.00;19.00;;;;;;;-3.21;48.61;100382.25;6336772;22;20230;-83
2022/03/13 04:41:23;;;;;;;24.33;17.00;;;;;;;-1.13;48.63;100684.50;6336816;22;20009;-83
2022/03/13 04:43:49;;;;;;;24.17;16.93;;;;;;;-3.41;48.79;100359.94;6336821;22;20011;-83
2022/03/13 04:46:15;;;;;;;20.80;16.03;;;;;;;-2.98;48.21;100438.88;6337071;22;20023;-83
2022/03/13 04:48:41;;;;;;;21.53;17.43;;;;;;;-2.87;48.58;100440.97;6336857;22;19991;-83
2022/03/13 04:51:07;;;;;;;21.50;16.80;;;;;;;-2.63;48.33;100457.09;6337112;22;20006;-83
2022/03/13 04:53:32;;;;;;;25.17;19.30;;;;;;;-3.65;48.70;100366.19;6336058;22;20007;-82
2022/03/13 04:55:58;;;;;;;23.03;18.37;;;;;;;-3.73;48.73;100332.13;6337411;22;20014;-83
2022/03/13 04:58:24;;;;;;;27.43;22.53;;;;;;;-3.26;48.38;100385.06;6336404;22;19983;-83
2022/03/13 05:00:50;;;;;;;36.03;25.53;;;;;;;-0.58;48.85;100789.81;6336775;22;19984;-82
2022/03/13 05:03:16;;;;;;;36.40;27.07;;;;;;;-3.47;49.29;100356.78;6336905;22;19995;-82
2022/03/13 05:05:42;;;;;;;38.90;28.50;;;;;;;-3.03;48.97;100439.97;6336698;22;20014;-82
2022/03/13 05:08:13;;;;;;;44.27;28.63;;;;;;;-2.75;48.95;100497.28;6336528;22;20007;-83
2022/03/13 05:10:40;;;;;;;37.63;24.17;;;;;;;-3.25;49.21;100412.56;6336422;22;20005;-83
2022/03/13 05:13:07;;;;;;;36.27;23.37;;;;;;;-3.29;48.68;100403.28;6336637;22;20277;-82
2022/03/13 05:18:09;;;;;;;46.63;31.53;;;;;;;-0.45;49.16;100796.06;6274586;22;20051;-82
2022/03/13 05:23:10;;;;;;;40.93;26.97;;;;;;;-1.95;48.34;100590.94;6274660;22;20119;-83
2022/03/13 05:25:37;;;;;;;58.30;34.83;;;;;;;-3.47;48.03;100346.47;6274314;23;19995;-83
2022/03/13 05:28:05;;;;;;;59.03;35.53;;;;;;;-3.32;48.31;100364.69;6274541;22;20000;-83
2022/03/13 05:30:31;;;;;;;58.97;36.07;;;;;;;-3.45;48.40;100330.00;6271219;23;20026;-82
2022/03/13 05:35:33;;;;;;;52.97;32.10;;;;;;;-2.19;48.33;100461.91;6335952;22;20090;-81
2022/03/13 05:37:59;;;;;;;45.20;30.47;;;;;;;-2.95;48.45;100388.81;6337045;22;20074;-81
2022/03/13 05:40:25;;;;;;;62.90;37.30;;;;;;;-3.26;48.17;100335.16;6335185;22;19999;-83
2022/03/13 05:42:58;;;;;;;56.17;35.67;;;;;;;-3.36;48.53;100318.41;6309443;22;19987;-83
2022/03/13 05:45:27;;;;;;;62.27;39.17;;;;;;;-3.18;48.21;100332.22;6336079;22;20019;-83
2022/03/13 05:47:58;;;;;;;71.90;45.30;;;;;;;-1.72;48.30;100538.03;6336298;22;19983;-83
2022/03/13 05:52:59;;;;;;;64.27;39.73;;;;;;;-3.07;48.57;100322.22;6315621;22;20044;-84
2022/03/13 05:55:28;;;;;;;71.87;44.87;;;;;;;-3.07;48.08;100348.03;6336741;22;19988;-83
2022/03/13 05:57:55;;;;;;;88.83;51.13;;;;;;;0.26;48.18;100833.09;6336543;22;20003;-83
2022/03/13 06:02:56;;;;;;;78.17;45.00;;;;;;;-2.68;47.72;100347.91;6323229;22;20023;-84
2022/03/13 06:05:22;;;;;;;68.13;42.57;;;;;;;-0.73;48.23;100631.50;6334021;22;20000;-84
2022/03/13 06:07:49;;;;;;;60.43;41.97;;;;;;;-0.70;48.26;100631.34;6335168;22;19983;-83
2022/03/13 06:10:16;;;;;;;56.77;38.53;;;;;;;-1.72;48.09;100483.66;6334944;22;19990;-83
2022/03/13 06:12:43;;;;;;;73.17;47.30;;;;;;;-2.73;48.18;100342.97;6308964;22;20010;-84
2022/03/13 06:15:11;;;;;;;87.63;54.53;;;;;;;-2.18;47.67;100430.78;6336056;22;20071;-81
2022/03/13 06:17:43;;;;;;;81.77;54.30;;;;;;;0.51;48.07;100824.81;6326178;22;19995;-81
2022/03/13 06:20:10;;;;;;;76.00;48.10;;;;;;;-2.20;47.97;100421.44;6294638;22;20030;-84
2022/03/13 06:22:41;;;;;;;68.43;46.47;;;;;;;-2.25;47.96;100406.09;6305208;22;20014;-83
2022/03/13 06:25:08;;;;;;;59.63;42.73;;;;;;;-2.05;48.33;100425.84;6318018;22;19996;-83
2022/03/13 06:27:34;;;;;;;60.33;42.90;;;;;;;-0.32;48.12;100675.19;6282533;22;20023;-83
2022/03/13 06:30:10;;;;;;;59.80;43.03;;;;;;;-1.05;47.82;100554.53;6313324;22;20015;-84
2022/03/13 06:32:36;;;;;;;61.83;41.70;;;;;;;-2.07;47.62;100381.94;6308682;22;20050;-85
2022/03/13 06:35:02;;;;;;;52.43;35.93;;;;;;;0.78;48.25;100849.34;6334758;22;19995;-85
2022/03/13 06:37:28;;;;;;;48.07;34.40;;;;;;;-1.21;47.93;100483.69;6327342;22;20003;-85
2022/03/13 06:39:54;;;;;;;44.97;33.37;;;;;;;-1.07;47.93;100501.94;6335364;22;20064;-85
2022/03/13 06:42:20;;;;;;;45.53;32.90;;;;;;;-0.77;47.52;100536.59;6335219;22;19990;-85
2022/03/13 06:55:07;;;;;;;42.90;29.93;;;;;;;-1.33;47.38;100438.53;6322001;22;20023;-84
2022/03/13 06:57:33;;;;;;;41.93;29.70;;;;;;;1.12;47.76;100788.47;6313342;22;20011;-85
2022/03/13 07:02:33;;;;;;;38.23;25.40;;;;;;;-1.29;47.64;100412.41;6288436;22;20045;-81
2022/03/13 07:04:59;;;;;;;33.90;23.10;;;;;;;-1.82;47.44;100310.78;6326718;22;20050;-83
2022/03/13 07:07:25;;;;;;;39.43;26.77;;;;;;;-0.37;47.61;100550.88;6314187;22;20007;-81
2022/03/13 07:15:01;;;;;;;25.53;18.60;;;;;;;-0.93;46.69;100442.44;6324732;22;20019;-85
2022/03/13 07:17:27;;;;;;;15.73;11.80;;;;;;;-1.34;46.97;100370.34;6333487;22;20002;-84
2022/03/13 07:19:52;;;;;;;12.50;10.20;;;;;;;-0.78;47.10;100464.94;6335443;22;19983;-83
2022/03/13 07:22:18;;;;;;;13.00;10.17;;;;;;;-0.44;46.78;100504.59;6299385;22;20204;-85
2022/03/13 07:24:46;;;;;;;15.20;11.67;;;;;;;-0.94;46.91;100399.28;6303200;22;19988;-83
2022/03/13 07:27:14;;;;;;;17.97;12.83;;;;;;;0.87;46.62;100655.59;6303420;22;20021;-85
2022/03/13 07:29:43;;;;;;;15.07;12.27;;;;;;;1.94;46.86;100871.38;6299841;22;20006;-84
2022/03/13 07:32:09;;;;;;;16.70;12.70;;;;;;;-1.10;46.29;100354.41;6298411;22;20023;-84
2022/03/13 07:34:34;;;;;;;12.40;10.23;;;;;;;-0.04;46.00;100511.81;6302868;22;20043;-83
2022/03/13 07:37:00;;;;;;;9.20;8.00;;;;;;;-0.87;45.88;100376.44;6302912;22;20000;-84
2022/03/13 07:42:02;;;;;;;11.07;7.30;;;;;;;0.06;44.18;100535.53;6295261;22;20003;-82
2022/03/13 07:50:16;;;;;;;10.13;7.43;;;;;;;-0.39;43.26;100415.22;6274492;22;20031;-83
2022/03/13 07:55:17;;;;;;;12.97;8.73;;;;;;;0.33;42.80;100514.94;6288311;22;19905;-83
2022/03/13 08:08:31;;;;;;;13.53;8.83;;;;;;;-0.09;42.24;100391.84;6253272;22;19942;-84
2022/03/13 08:10:59;;;;;;;10.80;7.87;;;;;;;0.01;42.29;100393.94;6249505;22;20015;-84
2022/03/13 08:21:10;;;;;;;8.10;6.20;;;;;;;0.42;40.67;100414.84;6237280;22;20030;-84
2022/03/13 08:23:36;;;;;;;7.73;6.70;;;;;;;0.33;40.27;100369.47;6306611;22;20000;-83
2022/03/13 08:33:47;;;;;;;8.77;6.13;;;;;;;3.62;39.76;100853.88;6263913;22;20060;-84
2022/03/13 08:36:13;;;;;;;10.00;6.93;;;;;;;1.10;39.58;100389.81;6306477;22;19991;-84
2022/03/13 08:38:39;;;;;;;11.90;7.90;;;;;;;1.30;39.26;100382.50;6263044;22;20124;-83
2022/03/13 08:41:05;;;;;;;10.57;8.10;;;;;;;1.32;39.03;100391.06;6274778;22;20003;-83
2022/03/13 08:43:30;;;;;;;6.17;4.70;;;;;;;4.14;38.90;100851.22;6305625;22;19988;-84
2022/03/13 08:48:31;;;;;;;6.67;3.50;;;;;;;2.68;37.84;100571.34;6277508;22;20030;-83
2022/03/13 08:53:46;;;;;;;5.47;3.63;;;;;;;1.87;37.40;100394.34;6253280;22;19899;-81
2022/03/13 09:01:25;;;;;;;6.10;4.77;;;;;;;3.10;36.23;100562.44;6244386;22;20031;-83
2022/03/13 09:03:50;;;;;;;5.47;4.77;;;;;;;4.89;36.16;100840.75;6245004;23;20043;-83
2022/03/13 09:06:16;;;;;;;8.30;5.10;;;;;;;2.80;36.08;100468.00;6219601;23;20036;-86
2022/03/13 09:08:41;;;;;;;9.93;5.90;;;;;;;2.37;35.82;100369.28;6245152;23;19995;-83
2022/03/13 09:11:09;;;;;;;5.73;4.50;;;;;;;2.31;35.75;100304.56;6245064;23;20017;-85
2022/03/13 09:13:38;;;;;;;4.63;4.20;;;;;;;2.81;35.70;100405.28;6244416;23;19973;-84
2022/03/13 09:16:04;;;;;;;6.50;4.87;;;;;;;2.75;35.31;100377.03;6244914;23;19997;-84
2022/03/13 09:18:30;;;;;;;8.23;5.67;;;;;;;2.73;35.14;100307.69;6218325;23;20045;-86
2022/03/13 09:20:56;;;;;;;7.97;4.97;;;;;;;2.91;34.67;100316.81;6216413;23;20001;-84
2022/03/13 09:23:22;;;;;;;5.60;4.57;;;;;;;3.54;34.58;100421.88;6230465;23;20001;-86
2022/03/13 09:25:47;;;;;;;6.53;5.27;;;;;;;4.61;34.25;100559.41;6221761;23;20000;-87
2022/03/13 09:28:13;;;;;;;7.37;5.20;;;;;;;4.93;34.52;100604.06;6215402;23;20015;-89
2022/03/13 09:30:39;;;;;;;5.43;4.57;;;;;;;5.96;34.53;100734.13;6214937;23;20453;-90
2022/03/13 09:33:05;;;;;;;7.00;4.73;;;;;;;5.46;33.92;100635.81;6187906;23;20450;-89
2022/03/13 09:35:31;;;;;;;5.70;4.60;;;;;;;4.40;33.55;100428.47;6214394;23;20347;-91
2022/03/13 09:37:56;;;;;;;5.57;4.67;;;;;;;6.36;33.15;100733.63;6214615;23;19996;-91
2022/03/13 09:40:22;;;;;;;4.73;4.00;;;;;;;6.42;32.66;100700.81;6187764;23;20034;-90
2022/03/13 09:42:48;;;;;;;7.40;5.53;;;;;;;5.76;32.71;100585.41;6214545;23;20001;-90
2022/03/13 09:45:14;;;;;;;7.63;5.20;;;;;;;6.72;32.67;100736.91;6188284;23;20454;-89
2022/03/13 09:47:40;;;;;;;5.60;4.30;;;;;;;6.60;32.28;100699.34;6188079;23;20047;-90
2022/03/13 09:50:11;;;;;;;5.47;3.83;;;;;;;6.82;31.20;100709.78;6188135;23;20450;-90
2022/03/13 09:52:40;;;;;;;6.80;3.93;;;;;;;6.47;30.96;100647.03;6187984;23;20331;-90
2022/03/13 09:55:06;;;;;;;4.17;3.43;;;;;;;6.84;30.14;100680.78;6204514;23;20260;-90
2022/03/13 09:57:33;;;;;;;6.07;3.70;;;;;;;7.54;29.59;100736.19;6212873;23;20000;-90
2022/03/13 09:59:59;;;;;;;4.80;3.50;;;;;;;6.89;28.13;100639.25;6212381;23;20412;-89
2022/03/13 10:02:37;;;;;;;5.57;4.07;;;;;;;7.46;28.11;100716.75;6212491;23;20072;-89
2022/03/13 10:05:17;;;;;;;4.17;3.77;;;;;;;7.84;27.67;100738.00;6212734;23;20000;-91
2022/03/13 10:07:58;;;;;;;4.63;3.80;;;;;;;7.41;26.52;100617.28;6214300;23;20005;-91
2022/03/13 10:10:26;;;;;;;6.73;4.80;;;;;;;7.47;28.50;100611.53;6212248;23;20071;-90
2022/03/13 10:12:52;;;;;;;5.67;4.37;;;;;;;6.72;27.60;100461.34;6213875;23;19996;-91
2022/03/13 10:15:18;;;;;;;4.83;4.40;;;;;;;8.22;28.21;100713.66;6212530;23;20072;-91
2022/03/13 10:17:43;;;;;;;4.90;4.30;;;;;;;8.29;27.89;100674.50;6212681;23;20434;-91
2022/03/13 10:20:27;;;;;;;6.60;4.60;;;;;;;8.29;28.05;100635.03;6211516;23;20058;-90
2022/03/13 10:23:02;;;;;;;6.77;4.30;;;;;;;9.16;27.64;100714.09;6211779;23;20072;-91
2022/03/13 10:25:30;;;;;;;6.00;4.60;;;;;;;8.35;27.62;100631.88;6212527;23;20078;-91
2022/03/13 10:28:12;;;;;;;5.00;4.23;;;;;;;8.68;27.53;100662.25;6212418;23;20008;-91
2022/03/13 10:30:38;;;;;;;5.80;4.10;;;;;;;7.92;27.41;100575.13;6212149;23;20001;-90
2022/03/13 10:33:05;;;;;;;4.77;4.07;;;;;;;8.14;27.45;100605.63;6213631;23;20004;-91
2022/03/13 10:35:31;;;;;;;6.88;5.10;;;;;;;8.19;27.31;100642.06;6214094;23;19993;-91
2022/03/13 10:37:56;;;;;;;6.73;4.87;;;;;;;7.68;27.45;100569.41;6212698;23;20000;-91
2022/03/13 10:40:24;;;;;;;5.27;4.70;;;;;;;8.18;27.36;100656.19;6212397;23;20011;-91
2022/03/13 10:42:51;;;;;;;6.97;4.60;;;;;;;8.34;28.02;100692.53;6212716;23;20024;-91
2022/03/13 10:45:39;;;;;;;5.65;4.82;;;;;;;8.48;25.56;100692.97;6213050;23;20012;-91
2022/03/13 10:48:28;;;;;;;7.53;4.73;;;;;;;8.50;26.63;100685.78;6240111;22;19989;-91
2022/03/13 10:50:56;;;;;;;5.80;4.60;;;;;;;8.46;28.01;100694.09;6243070;22;19993;-91
2022/03/13 10:53:22;;;;;;;6.50;5.37;;;;;;;8.41;27.98;100685.78;6241014;22;20052;-91
2022/03/13 10:56:08;;;;;;;6.97;4.90;;;;;;;8.39;27.36;100680.63;6218562;23;20060;-91
2022/03/13 10:58:38;;;;;;;6.67;4.37;;;;;;;7.39;27.88;100540.38;6217342;23;20031;-92
2022/03/13 11:01:18;;;;;;;5.30;4.30;;;;;;;8.51;25.27;100676.09;6211574;23;20489;-91
2022/03/13 11:03:59;;;;;;;5.25;4.75;;;;;;;8.29;26.67;100588.50;6211792;23;20004;-91
2022/03/13 11:06:26;;;;;;;4.30;3.50;;;;;;;8.80;27.23;100608.47;6211804;23;20032;-91
2022/03/13 11:08:54;;;;;;;5.38;4.38;;;;;;;8.88;26.46;100615.66;6211755;23;20012;-91
2022/03/13 11:11:25;;;;;;;4.75;4.20;;;;;;;9.02;26.68;100635.50;6213226;23;20020;-91
2022/03/13 11:13:54;;;;;;;4.88;4.00;;;;;;;9.23;26.81;100615.06;6213234;23;19992;-90
2022/03/13 11:16:25;;;;;;;6.00;4.63;;;;;;;8.99;26.80;100548.84;6212018;23;20004;-88
2022/03/13 11:18:52;;;;;;;5.63;4.53;;;;;;;8.89;26.69;100517.25;6212098;23;20000;-90
2022/03/13 11:21:20;;;;;;;6.38;4.70;;;;;;;9.61;26.51;100626.44;6212048;23;20004;-90
2022/03/13 11:23:46;;;;;;;6.03;4.60;;;;;;;8.98;26.14;100483.97;6212221;23;20000;-88
2022/03/13 11:26:15;;;;;;;5.22;4.22;;;;;;;9.98;26.01;100616.69;6212161;23;20008;-90
2022/03/13 11:28:45;;;;;;;6.32;4.70;;;;;;;9.46;26.22;100536.44;6229402;23;20033;-88
2022/03/13 11:31:29;;;;;;;5.80;4.38;;;;;;;9.67;25.74;100568.69;6242070;22;19999;-86
2022/03/13 11:34:16;;;;;;;5.45;4.70;;;;;;;10.18;25.21;100636.72;6241435;22;19997;-89
2022/03/13 11:36:51;;;;;;;5.20;4.30;;;;;;;9.28;25.70;100491.59;6219314;23;19997;-89
2022/03/13 11:39:58;;;;;;;6.47;4.68;;;;;;;10.19;25.51;100630.44;6220995;23;20000;-89
2022/03/13 11:42:23;;;;;;;6.80;4.30;;;;;;;9.61;26.42;100511.25;6220583;23;19997;-90
2022/03/13 11:44:49;;;;;;;5.18;4.45;;;;;;;9.55;25.76;100535.56;6215038;23;20011;-89
2022/03/13 11:47:23;;;;;;;5.53;4.20;;;;;;;10.54;25.63;100633.31;6212997;23;20007;-89
2022/03/13 11:49:49;;;;;;;4.82;4.32;;;;;;;10.05;25.04;100553.59;6212956;23;20050;-89
2022/03/13 11:52:17;;;;;;;5.82;4.88;;;;;;;10.47;25.32;100623.38;6213033;23;19997;-89
2022/03/13 11:54:50;;;;;;;4.50;4.00;;;;;;;10.43;24.89;100626.47;6211406;23;20004;-89
2022/03/13 11:57:27;;;;;;;4.65;4.05;;;;;;;9.98;24.83;100540.19;6211389;23;20073;-89
2022/03/13 12:00:11;;;;;;;4.40;3.70;;;;;;;10.62;24.37;100606.97;6211279;23;20012;-90
2022/03/13 12:02:45;;;;;;;6.13;3.90;;;;;;;10.67;24.54;100613.47;6213135;23;20050;-89
2022/03/13 12:05:26;;;;;;;7.53;4.70;;;;;;;10.62;23.19;100609.63;6211619;23;20031;-89
2022/03/13 12:08:05;;;;;;;4.40;4.00;;;;;;;10.60;23.95;100617.69;6213081;23;20024;-90
2022/03/13 12:10:39;;;;;;;4.22;3.70;;;;;;;10.42;24.70;100607.16;6211661;23;20051;-89
2022/03/13 12:13:06;;;;;;;5.63;3.92;;;;;;;9.95;25.16;100544.94;6211567;23;20005;-89
2022/03/13 12:15:31;;;;;;;5.25;4.18;;;;;;;10.27;25.55;100592.78;6213238;23;19995;-89
2022/03/13 12:17:57;;;;;;;5.20;4.53;;;;;;;9.93;25.48;100555.63;6211849;23;20005;-89
2022/03/13 12:20:28;;;;;;;5.95;4.75;;;;;;;9.79;25.13;100582.50;6212925;23;20362;-89
2022/03/13 12:23:00;;;;;;;4.63;4.13;;;;;;;9.56;25.45;100516.97;6211120;23;20414;-90
2022/03/13 12:25:30;;;;;;;6.00;4.55;;;;;;;10.03;25.56;100593.34;6211473;23;20009;-90
2022/03/13 12:28:01;;;;;;;5.35;4.10;;;;;;;9.27;25.77;100473.31;6211612;23;20028;-90
2022/03/13 12:30:29;;;;;;;4.15;3.75;;;;;;;9.72;25.77;100557.72;6211659;23;20140;-89
2022/03/13 12:33:00;;;;;;;5.78;4.53;;;;;;;10.02;25.85;100585.56;6212510;23;20005;-90
2022/03/13 12:35:26;;;;;;;5.32;4.07;;;;;;;9.66;25.45;100527.50;6213323;23;20001;-90
2022/03/13 12:38:01;;;;;;;4.10;3.65;;;;;;;9.91;25.53;100607.72;6213853;23;20565;-90
2022/03/13 12:40:32;;;;;;;5.65;3.60;;;;;;;9.49;25.68;100547.53;6216007;23;19996;-90
2022/03/13 12:42:59;;;;;;;4.47;3.83;;;;;;;9.15;25.56;100484.03;6214377;23;20007;-90
2022/03/13 12:45:26;;;;;;;5.10;4.55;;;;;;;9.06;25.64;100507.78;6214646;23;20087;-90
2022/03/13 12:47:54;;;;;;;3.97;3.53;;;;;;;9.57;25.62;100584.53;6213565;23;20003;-89
2022/03/13 12:50:23;;;;;;;6.38;4.32;;;;;;;9.55;25.57;100581.22;6215070;23;20434;-89
2022/03/13 12:53:01;;;;;;;7.93;5.93;;;;;;;9.45;25.58;100553.25;6213402;23;20000;-90
2022/03/13 12:55:27;;;;;;;6.78;4.65;;;;;;;9.21;25.58;100541.41;6213765;23;20463;-90
2022/03/13 12:57:55;;;;;;;5.72;5.13;;;;;;;9.51;26.15;100582.50;6214764;23;20001;-90
2022/03/13 13:00:32;;;;;;;4.85;4.05;;;;;;;9.54;25.75;100571.66;6212805;23;20025;-90
2022/03/13 13:03:05;;;;;;;7.88;5.07;;;;;;;9.61;26.29;100581.59;6213188;23;20004;-90
2022/03/13 13:05:31;;;;;;;6.22;4.47;;;;;;;8.88;25.92;100455.84;6214777;23;20009;-89
2022/03/13 13:07:56;;;;;;;8.15;6.10;;;;;;;9.58;26.26;100582.72;6214668;23;20136;-89
2022/03/13 13:10:22;;;;;;;6.68;5.43;;;;;;;9.51;25.89;100561.41;6212881;23;20039;-90
2022/03/13 13:12:48;;;;;;;7.53;5.53;;;;;;;9.57;26.24;100576.63;6212795;23;20000;-90
2022/03/13 13:15:15;;;;;;;5.10;4.60;;;;;;;9.42;26.15;100582.53;6214477;23;20000;-89
2022/03/13 13:17:45;;;;;;;5.85;4.40;;;;;;;8.89;26.08;100533.03;6211329;23;20028;-90
2022/03/13 13:20:26;;;;;;;4.60;4.20;;;;;;;8.90;25.43;100514.47;6215127;23;19996;-90
2022/03/13 13:23:11;;;;;;;6.55;5.00;;;;;;;9.27;25.91;100578.72;6215426;23;20331;-90